Main page
METAR-TAF:

METAR-TAF

Airports :

RAF Cranwell

Cranwell, England

latitude: 53-02N, longitude: 000-30W, elevation: 67 m

Current weather observation

The report was made 37 minutes ago, at 06:50 UTC
Wind 10 kt from the West
Temperature 3°C
Humidity 93%
Pressure 1019 hPa
Visibility 10 km or more

METAR: EGYD 170650Z AUTO 28010KT 9999 // NCD 03/02 Q1019

Time: 07:27 (07:27 UTC)


TAF: missing

Weather observations and forecasts of more than 4000 airports (METAR and TAF reports).

The available stations are represented by yellow and red dots on the map.

Hover mouse over dot to see the name of the station.

Then click to see weather observations and forecasts.

To change the map : click on the green buttons with a black cross to zoom in, on the green button with a dash to zoom out, or on the green arrows for adjacent maps.


METAR-TAF: